sensor_id;sensor_type;location;lat;lon;timestamp;P1;durP1;ratioP1;P2;durP2;ratioP2
8480;SDS011;4277;51.354;6.740;2022-11-14T00:00:58;11.20;;;9.33;;
8480;SDS011;4277;51.354;6.740;2022-11-14T00:03:24;11.37;;;9.40;;
8480;SDS011;4277;51.354;6.740;2022-11-14T00:05:50;9.73;;;8.73;;
8480;SDS011;4277;51.354;6.740;2022-11-14T00:08:17;10.57;;;8.23;;
8480;SDS011;4277;51.354;6.740;2022-11-14T00:10:47;10.47;;;8.57;;
8480;SDS011;4277;51.354;6.740;2022-11-14T00:13:13;9.43;;;7.70;;
8480;SDS011;4277;51.354;6.740;2022-11-14T00:15:40;10.50;;;8.30;;
8480;SDS011;4277;51.354;6.740;2022-11-14T00:18:06;12.17;;;9.27;;
8480;SDS011;4277;51.354;6.740;2022-11-14T00:20:32;9.80;;;8.20;;
8480;SDS011;4277;51.354;6.740;2022-11-14T00:22:58;11.03;;;8.20;;
8480;SDS011;4277;51.354;6.740;2022-11-14T00:25:24;11.13;;;8.30;;
8480;SDS011;4277;51.354;6.740;2022-11-14T00:27:50;9.03;;;7.90;;
8480;SDS011;4277;51.354;6.740;2022-11-14T00:30:16;11.60;;;7.87;;
8480;SDS011;4277;51.354;6.740;2022-11-14T00:32:42;8.90;;;7.47;;
8480;SDS011;4277;51.354;6.740;2022-11-14T00:35:08;10.60;;;7.70;;
8480;SDS011;4277;51.354;6.740;2022-11-14T00:37:34;9.57;;;7.97;;
8480;SDS011;4277;51.354;6.740;2022-11-14T00:40:00;8.60;;;7.10;;
8480;SDS011;4277;51.354;6.740;2022-11-14T00:42:26;10.07;;;7.67;;
8480;SDS011;4277;51.354;6.740;2022-11-14T00:44:52;11.43;;;8.50;;
8480;SDS011;4277;51.354;6.740;2022-11-14T00:47:18;10.53;;;8.17;;
8480;SDS011;4277;51.354;6.740;2022-11-14T00:49:44;10.57;;;8.27;;
8480;SDS011;4277;51.354;6.740;2022-11-14T00:52:10;10.47;;;9.00;;
8480;SDS011;4277;51.354;6.740;2022-11-14T00:54:36;12.33;;;9.33;;
8480;SDS011;4277;51.354;6.740;2022-11-14T00:57:02;12.53;;;9.47;;
8480;SDS011;4277;51.354;6.740;2022-11-14T00:59:28;12.60;;;9.40;;
8480;SDS011;4277;51.354;6.740;2022-11-14T01:01:54;14.40;;;9.33;;
8480;SDS011;4277;51.354;6.740;2022-11-14T01:04:20;13.47;;;9.40;;
8480;SDS011;4277;51.354;6.740;2022-11-14T01:06:45;11.77;;;9.40;;
8480;SDS011;4277;51.354;6.740;2022-11-14T01:09:11;11.97;;;8.93;;
8480;SDS011;4277;51.354;6.740;2022-11-14T01:11:37;9.60;;;8.30;;
8480;SDS011;4277;51.354;6.740;2022-11-14T01:14:06;10.83;;;8.77;;
8480;SDS011;4277;51.354;6.740;2022-11-14T01:16:32;13.70;;;9.50;;
8480;SDS011;4277;51.354;6.740;2022-11-14T01:18:59;10.33;;;8.40;;
8480;SDS011;4277;51.354;6.740;2022-11-14T01:21:25;11.77;;;9.00;;
8480;SDS011;4277;51.354;6.740;2022-11-14T01:23:51;10.37;;;8.13;;
8480;SDS011;4277;51.354;6.740;2022-11-14T01:26:17;12.67;;;8.93;;
8480;SDS011;4277;51.354;6.740;2022-11-14T01:28:43;12.80;;;9.17;;
8480;SDS011;4277;51.354;6.740;2022-11-14T01:31:10;12.03;;;9.27;;
8480;SDS011;4277;51.354;6.740;2022-11-14T01:33:37;12.80;;;9.20;;
8480;SDS011;4277;51.354;6.740;2022-11-14T01:36:04;10.07;;;8.93;;
8480;SDS011;4277;51.354;6.740;2022-11-14T01:38:30;12.67;;;9.73;;
8480;SDS011;4277;51.354;6.740;2022-11-14T01:40:56;12.17;;;9.90;;
8480;SDS011;4277;51.354;6.740;2022-11-14T01:43:26;12.87;;;9.57;;
8480;SDS011;4277;51.354;6.740;2022-11-14T01:46:05;11.50;;;8.83;;
8480;SDS011;4277;51.354;6.740;2022-11-14T01:53:35;10.23;;;7.93;;
8480;SDS011;4277;51.354;6.740;2022-11-14T01:56:02;10.00;;;7.50;;
8480;SDS011;4277;51.354;6.740;2022-11-14T01:58:29;8.90;;;7.53;;
8480;SDS011;4277;51.354;6.740;2022-11-14T02:00:55;9.10;;;7.90;;
8480;SDS011;4277;51.354;6.740;2022-11-14T02:03:21;11.33;;;8.20;;
8480;SDS011;4277;51.354;6.740;2022-11-14T02:05:48;11.60;;;8.20;;
8480;SDS011;4277;51.354;6.740;2022-11-14T02:08:15;9.67;;;8.27;;
8480;SDS011;4277;51.354;6.740;2022-11-14T02:10:41;11.17;;;8.60;;
8480;SDS011;4277;51.354;6.740;2022-11-14T02:13:07;10.20;;;7.90;;
8480;SDS011;4277;51.354;6.740;2022-11-14T02:15:33;11.67;;;7.90;;
8480;SDS011;4277;51.354;6.740;2022-11-14T02:18:00;10.33;;;7.50;;
8480;SDS011;4277;51.354;6.740;2022-11-14T02:20:27;11.53;;;7.37;;
8480;SDS011;4277;51.354;6.740;2022-11-14T02:22:56;8.30;;;6.80;;
8480;SDS011;4277;51.354;6.740;2022-11-14T02:25:22;8.87;;;7.37;;
8480;SDS011;4277;51.354;6.740;2022-11-14T02:27:48;8.60;;;7.50;;
8480;SDS011;4277;51.354;6.740;2022-11-14T02:30:19;10.00;;;7.60;;
8480;SDS011;4277;51.354;6.740;2022-11-14T02:32:46;10.37;;;7.97;;
8480;SDS011;4277;51.354;6.740;2022-11-14T02:35:12;10.07;;;7.70;;
8480;SDS011;4277;51.354;6.740;2022-11-14T02:37:38;8.90;;;7.47;;
8480;SDS011;4277;51.354;6.740;2022-11-14T02:40:04;9.80;;;7.70;;
8480;SDS011;4277;51.354;6.740;2022-11-14T02:42:30;8.90;;;7.40;;
8480;SDS011;4277;51.354;6.740;2022-11-14T02:44:56;8.83;;;7.30;;
8480;SDS011;4277;51.354;6.740;2022-11-14T02:47:22;8.20;;;7.03;;
8480;SDS011;4277;51.354;6.740;2022-11-14T02:49:51;11.50;;;8.00;;
8480;SDS011;4277;51.354;6.740;2022-11-14T02:52:17;9.30;;;7.53;;
8480;SDS011;4277;51.354;6.740;2022-11-14T02:54:43;11.13;;;8.23;;
8480;SDS011;4277;51.354;6.740;2022-11-14T02:57:09;10.00;;;7.60;;
8480;SDS011;4277;51.354;6.740;2022-11-14T02:59:35;8.23;;;6.53;;
8480;SDS011;4277;51.354;6.740;2022-11-14T03:02:01;8.53;;;7.20;;
8480;SDS011;4277;51.354;6.740;2022-11-14T03:04:27;8.43;;;6.83;;
8480;SDS011;4277;51.354;6.740;2022-11-14T03:06:53;9.77;;;7.23;;
8480;SDS011;4277;51.354;6.740;2022-11-14T03:09:19;9.93;;;7.20;;
8480;SDS011;4277;51.354;6.740;2022-11-14T03:11:45;9.00;;;6.47;;
8480;SDS011;4277;51.354;6.740;2022-11-14T03:14:11;7.73;;;6.80;;
8480;SDS011;4277;51.354;6.740;2022-11-14T03:16:37;9.47;;;6.90;;
8480;SDS011;4277;51.354;6.740;2022-11-14T03:19:03;8.13;;;6.43;;
8480;SDS011;4277;51.354;6.740;2022-11-14T03:21:29;8.13;;;6.97;;
8480;SDS011;4277;51.354;6.740;2022-11-14T03:23:55;8.47;;;7.10;;
8480;SDS011;4277;51.354;6.740;2022-11-14T03:26:21;9.30;;;6.60;;
8480;SDS011;4277;51.354;6.740;2022-11-14T03:28:47;8.73;;;6.40;;
8480;SDS011;4277;51.354;6.740;2022-11-14T03:31:13;7.77;;;6.70;;
8480;SDS011;4277;51.354;6.740;2022-11-14T03:33:39;9.33;;;7.13;;
8480;SDS011;4277;51.354;6.740;2022-11-14T03:36:05;10.27;;;7.47;;
8480;SDS011;4277;51.354;6.740;2022-11-14T03:38:31;8.40;;;7.00;;
8480;SDS011;4277;51.354;6.740;2022-11-14T03:40:58;8.93;;;7.13;;
8480;SDS011;4277;51.354;6.740;2022-11-14T03:43:24;8.77;;;7.00;;
8480;SDS011;4277;51.354;6.740;2022-11-14T03:45:50;8.40;;;7.17;;
8480;SDS011;4277;51.354;6.740;2022-11-14T03:48:16;8.30;;;7.00;;
8480;SDS011;4277;51.354;6.740;2022-11-14T03:50:42;8.93;;;6.73;;
8480;SDS011;4277;51.354;6.740;2022-11-14T03:53:09;7.37;;;6.00;;
8480;SDS011;4277;51.354;6.740;2022-11-14T03:55:35;8.33;;;6.27;;
8480;SDS011;4277;51.354;6.740;2022-11-14T03:58:02;8.40;;;6.47;;
8480;SDS011;4277;51.354;6.740;2022-11-14T04:00:28;7.67;;;6.03;;
8480;SDS011;4277;51.354;6.740;2022-11-14T04:02:55;8.57;;;6.60;;
8480;SDS011;4277;51.354;6.740;2022-11-14T04:05:21;8.73;;;6.57;;
8480;SDS011;4277;51.354;6.740;2022-11-14T04:07:47;11.43;;;7.17;;
8480;SDS011;4277;51.354;6.740;2022-11-14T04:10:13;8.77;;;7.13;;
8480;SDS011;4277;51.354;6.740;2022-11-14T04:12:39;8.33;;;7.03;;
8480;SDS011;4277;51.354;6.740;2022-11-14T04:15:05;7.77;;;6.67;;
8480;SDS011;4277;51.354;6.740;2022-11-14T04:17:31;8.80;;;7.17;;
8480;SDS011;4277;51.354;6.740;2022-11-14T04:19:57;7.93;;;6.70;;
8480;SDS011;4277;51.354;6.740;2022-11-14T04:22:23;8.37;;;6.73;;
8480;SDS011;4277;51.354;6.740;2022-11-14T04:24:48;7.83;;;6.80;;
8480;SDS011;4277;51.354;6.740;2022-11-14T04:27:14;8.00;;;6.57;;
8480;SDS011;4277;51.354;6.740;2022-11-14T04:29:40;8.47;;;7.00;;
8480;SDS011;4277;51.354;6.740;2022-11-14T04:32:06;9.37;;;7.70;;
8480;SDS011;4277;51.354;6.740;2022-11-14T04:34:32;9.97;;;7.67;;
8480;SDS011;4277;51.354;6.740;2022-11-14T04:36:58;9.73;;;7.50;;
8480;SDS011;4277;51.354;6.740;2022-11-14T04:39:24;11.23;;;7.07;;
8480;SDS011;4277;51.354;6.740;2022-11-14T04:41:50;8.00;;;6.37;;
8480;SDS011;4277;51.354;6.740;2022-11-14T04:44:16;7.13;;;6.00;;
8480;SDS011;4277;51.354;6.740;2022-11-14T04:46:42;6.67;;;5.63;;
8480;SDS011;4277;51.354;6.740;2022-11-14T04:49:08;8.53;;;6.03;;
8480;SDS011;4277;51.354;6.740;2022-11-14T04:51:34;7.03;;;5.60;;
8480;SDS011;4277;51.354;6.740;2022-11-14T04:54:00;6.33;;;5.60;;
8480;SDS011;4277;51.354;6.740;2022-11-14T04:56:26;6.30;;;4.93;;
8480;SDS011;4277;51.354;6.740;2022-11-14T04:58:53;8.67;;;5.40;;
8480;SDS011;4277;51.354;6.740;2022-11-14T05:01:19;5.50;;;4.43;;
8480;SDS011;4277;51.354;6.740;2022-11-14T05:03:45;5.97;;;5.17;;
8480;SDS011;4277;51.354;6.740;2022-11-14T05:06:11;6.97;;;5.00;;
8480;SDS011;4277;51.354;6.740;2022-11-14T05:08:37;7.73;;;5.20;;
8480;SDS011;4277;51.354;6.740;2022-11-14T05:11:03;5.97;;;5.17;;
8480;SDS011;4277;51.354;6.740;2022-11-14T05:13:29;5.20;;;4.60;;
8480;SDS011;4277;51.354;6.740;2022-11-14T05:15:58;5.63;;;5.03;;
8480;SDS011;4277;51.354;6.740;2022-11-14T05:18:24;6.57;;;5.13;;
8480;SDS011;4277;51.354;6.740;2022-11-14T05:20:50;8.57;;;5.20;;
8480;SDS011;4277;51.354;6.740;2022-11-14T05:23:20;7.60;;;5.30;;
8480;SDS011;4277;51.354;6.740;2022-11-14T05:25:46;6.13;;;5.20;;
8480;SDS011;4277;51.354;6.740;2022-11-14T05:28:13;7.10;;;5.70;;
8480;SDS011;4277;51.354;6.740;2022-11-14T05:30:39;6.27;;;5.30;;
8480;SDS011;4277;51.354;6.740;2022-11-14T05:33:05;6.43;;;5.43;;
8480;SDS011;4277;51.354;6.740;2022-11-14T05:35:30;6.90;;;5.83;;
8480;SDS011;4277;51.354;6.740;2022-11-14T05:37:59;7.57;;;6.00;;
8480;SDS011;4277;51.354;6.740;2022-11-14T05:40:26;7.30;;;5.57;;
8480;SDS011;4277;51.354;6.740;2022-11-14T05:42:53;6.80;;;5.60;;
8480;SDS011;4277;51.354;6.740;2022-11-14T05:45:20;8.20;;;5.40;;
8480;SDS011;4277;51.354;6.740;2022-11-14T05:47:46;9.73;;;6.20;;
8480;SDS011;4277;51.354;6.740;2022-11-14T05:50:12;6.70;;;5.53;;
8480;SDS011;4277;51.354;6.740;2022-11-14T05:52:37;7.53;;;5.73;;
8480;SDS011;4277;51.354;6.740;2022-11-14T05:55:03;7.77;;;6.13;;
8480;SDS011;4277;51.354;6.740;2022-11-14T05:57:29;8.47;;;6.03;;
8480;SDS011;4277;51.354;6.740;2022-11-14T05:59:55;6.70;;;5.30;;
8480;SDS011;4277;51.354;6.740;2022-11-14T06:02:22;8.03;;;5.80;;
8480;SDS011;4277;51.354;6.740;2022-11-14T06:04:47;8.30;;;6.30;;
8480;SDS011;4277;51.354;6.740;2022-11-14T06:07:13;8.07;;;6.10;;
8480;SDS011;4277;51.354;6.740;2022-11-14T06:09:39;7.43;;;6.07;;
8480;SDS011;4277;51.354;6.740;2022-11-14T06:12:05;8.40;;;6.13;;
8480;SDS011;4277;51.354;6.740;2022-11-14T06:14:31;9.50;;;6.67;;
8480;SDS011;4277;51.354;6.740;2022-11-14T06:16:57;9.07;;;6.20;;
8480;SDS011;4277;51.354;6.740;2022-11-14T06:19:23;8.87;;;6.07;;
8480;SDS011;4277;51.354;6.740;2022-11-14T06:21:49;8.30;;;5.90;;
8480;SDS011;4277;51.354;6.740;2022-11-14T06:24:15;9.03;;;6.13;;
8480;SDS011;4277;51.354;6.740;2022-11-14T06:26:41;8.97;;;5.73;;
8480;SDS011;4277;51.354;6.740;2022-11-14T06:29:08;10.73;;;6.63;;
8480;SDS011;4277;51.354;6.740;2022-11-14T06:31:34;7.83;;;6.17;;
8480;SDS011;4277;51.354;6.740;2022-11-14T06:34:00;10.10;;;5.90;;
8480;SDS011;4277;51.354;6.740;2022-11-14T06:36:26;9.30;;;6.30;;
8480;SDS011;4277;51.354;6.740;2022-11-14T06:38:52;7.63;;;5.90;;
8480;SDS011;4277;51.354;6.740;2022-11-14T06:41:19;9.10;;;6.60;;
8480;SDS011;4277;51.354;6.740;2022-11-14T06:43:46;11.23;;;6.50;;
8480;SDS011;4277;51.354;6.740;2022-11-14T06:46:14;11.83;;;6.60;;
8480;SDS011;4277;51.354;6.740;2022-11-14T06:48:41;9.90;;;6.93;;
8480;SDS011;4277;51.354;6.740;2022-11-14T06:51:09;9.20;;;7.07;;
8480;SDS011;4277;51.354;6.740;2022-11-14T06:53:35;9.17;;;6.20;;
8480;SDS011;4277;51.354;6.740;2022-11-14T06:58:32;8.83;;;5.50;;
8480;SDS011;4277;51.354;6.740;2022-11-14T07:01:05;8.20;;;5.70;;
8480;SDS011;4277;51.354;6.740;2022-11-14T07:03:32;9.43;;;6.80;;
8480;SDS011;4277;51.354;6.740;2022-11-14T07:06:01;9.87;;;7.10;;
8480;SDS011;4277;51.354;6.740;2022-11-14T07:08:27;8.00;;;6.40;;
8480;SDS011;4277;51.354;6.740;2022-11-14T07:10:53;10.33;;;7.17;;
8480;SDS011;4277;51.354;6.740;2022-11-14T07:13:19;10.73;;;6.50;;
8480;SDS011;4277;51.354;6.740;2022-11-14T07:15:48;9.63;;;6.80;;
8480;SDS011;4277;51.354;6.740;2022-11-14T07:18:14;9.30;;;6.67;;
8480;SDS011;4277;51.354;6.740;2022-11-14T07:20:40;11.90;;;6.33;;
8480;SDS011;4277;51.354;6.740;2022-11-14T07:23:06;9.27;;;6.67;;
8480;SDS011;4277;51.354;6.740;2022-11-14T07:25:32;9.60;;;7.30;;
8480;SDS011;4277;51.354;6.740;2022-11-14T07:27:58;9.90;;;7.53;;
8480;SDS011;4277;51.354;6.740;2022-11-14T07:30:24;11.87;;;7.30;;
8480;SDS011;4277;51.354;6.740;2022-11-14T07:32:54;11.67;;;7.37;;
8480;SDS011;4277;51.354;6.740;2022-11-14T07:35:20;10.20;;;7.80;;
8480;SDS011;4277;51.354;6.740;2022-11-14T07:37:46;10.83;;;7.27;;
8480;SDS011;4277;51.354;6.740;2022-11-14T07:40:12;10.00;;;7.83;;
8480;SDS011;4277;51.354;6.740;2022-11-14T07:42:38;8.37;;;7.27;;
8480;SDS011;4277;51.354;6.740;2022-11-14T07:45:04;8.80;;;6.80;;
8480;SDS011;4277;51.354;6.740;2022-11-14T07:47:30;9.70;;;7.87;;
8480;SDS011;4277;51.354;6.740;2022-11-14T07:49:56;8.97;;;7.20;;
8480;SDS011;4277;51.354;6.740;2022-11-14T07:52:22;9.83;;;8.10;;
8480;SDS011;4277;51.354;6.740;2022-11-14T07:54:48;10.93;;;8.43;;
8480;SDS011;4277;51.354;6.740;2022-11-14T07:57:14;12.53;;;7.40;;
8480;SDS011;4277;51.354;6.740;2022-11-14T07:59:39;13.37;;;9.33;;
8480;SDS011;4277;51.354;6.740;2022-11-14T08:02:07;11.90;;;9.47;;
8480;SDS011;4277;51.354;6.740;2022-11-14T08:04:34;11.90;;;9.57;;
8480;SDS011;4277;51.354;6.740;2022-11-14T08:06:59;11.97;;;8.80;;
8480;SDS011;4277;51.354;6.740;2022-11-14T08:09:25;12.00;;;9.70;;
8480;SDS011;4277;51.354;6.740;2022-11-14T08:11:51;14.47;;;10.83;;
8480;SDS011;4277;51.354;6.740;2022-11-14T08:14:17;13.07;;;10.03;;
8480;SDS011;4277;51.354;6.740;2022-11-14T08:16:43;14.30;;;10.80;;
8480;SDS011;4277;51.354;6.740;2022-11-14T08:19:09;14.23;;;10.87;;
8480;SDS011;4277;51.354;6.740;2022-11-14T08:21:35;17.97;;;10.50;;
8480;SDS011;4277;51.354;6.740;2022-11-14T08:24:01;13.03;;;10.17;;
8480;SDS011;4277;51.354;6.740;2022-11-14T08:26:27;16.37;;;11.67;;
8480;SDS011;4277;51.354;6.740;2022-11-14T08:28:53;16.57;;;11.67;;
8480;SDS011;4277;51.354;6.740;2022-11-14T08:31:19;17.70;;;12.97;;
8480;SDS011;4277;51.354;6.740;2022-11-14T08:33:46;17.90;;;13.10;;
8480;SDS011;4277;51.354;6.740;2022-11-14T08:36:14;19.63;;;13.67;;
8480;SDS011;4277;51.354;6.740;2022-11-14T08:38:40;17.53;;;12.70;;
8480;SDS011;4277;51.354;6.740;2022-11-14T08:41:06;17.17;;;12.80;;
8480;SDS011;4277;51.354;6.740;2022-11-14T08:43:32;16.93;;;12.23;;
8480;SDS011;4277;51.354;6.740;2022-11-14T08:45:58;21.03;;;13.10;;
8480;SDS011;4277;51.354;6.740;2022-11-14T08:48:25;18.57;;;12.50;;
8480;SDS011;4277;51.354;6.740;2022-11-14T08:50:51;20.87;;;13.90;;
8480;SDS011;4277;51.354;6.740;2022-11-14T08:53:17;21.50;;;14.53;;
8480;SDS011;4277;51.354;6.740;2022-11-14T08:55:43;17.30;;;12.67;;
8480;SDS011;4277;51.354;6.740;2022-11-14T08:58:09;18.70;;;13.47;;
8480;SDS011;4277;51.354;6.740;2022-11-14T09:00:35;19.23;;;13.40;;
8480;SDS011;4277;51.354;6.740;2022-11-14T09:03:08;18.77;;;13.03;;
8480;SDS011;4277;51.354;6.740;2022-11-14T09:05:34;19.13;;;13.83;;
8480;SDS011;4277;51.354;6.740;2022-11-14T09:08:00;17.93;;;12.67;;
8480;SDS011;4277;51.354;6.740;2022-11-14T09:10:26;20.10;;;13.17;;
8480;SDS011;4277;51.354;6.740;2022-11-14T09:12:55;17.97;;;12.47;;
8480;SDS011;4277;51.354;6.740;2022-11-14T09:15:21;18.83;;;13.33;;
8480;SDS011;4277;51.354;6.740;2022-11-14T09:17:47;20.80;;;12.90;;
8480;SDS011;4277;51.354;6.740;2022-11-14T09:20:13;19.43;;;13.93;;
8480;SDS011;4277;51.354;6.740;2022-11-14T09:22:39;21.37;;;13.67;;
8480;SDS011;4277;51.354;6.740;2022-11-14T09:25:05;21.53;;;13.53;;
8480;SDS011;4277;51.354;6.740;2022-11-14T09:27:31;18.77;;;13.53;;
8480;SDS011;4277;51.354;6.740;2022-11-14T09:29:57;20.57;;;14.70;;
8480;SDS011;4277;51.354;6.740;2022-11-14T09:32:23;21.07;;;13.80;;
8480;SDS011;4277;51.354;6.740;2022-11-14T09:34:49;21.20;;;14.33;;
8480;SDS011;4277;51.354;6.740;2022-11-14T09:37:15;22.07;;;14.73;;
8480;SDS011;4277;51.354;6.740;2022-11-14T09:39:41;21.27;;;13.40;;
8480;SDS011;4277;51.354;6.740;2022-11-14T09:48:02;18.43;;;13.30;;
8480;SDS011;4277;51.354;6.740;2022-11-14T09:52:53;17.37;;;12.50;;
8480;SDS011;4277;51.354;6.740;2022-11-14T09:55:21;20.63;;;14.60;;
8480;SDS011;4277;51.354;6.740;2022-11-14T09:57:47;20.93;;;14.47;;
8480;SDS011;4277;51.354;6.740;2022-11-14T10:00:14;21.30;;;14.87;;
8480;SDS011;4277;51.354;6.740;2022-11-14T10:02:45;22.47;;;14.00;;
8480;SDS011;4277;51.354;6.740;2022-11-14T10:07:46;19.87;;;14.40;;
8480;SDS011;4277;51.354;6.740;2022-11-14T10:15:30;19.77;;;13.67;;
8480;SDS011;4277;51.354;6.740;2022-11-14T10:20:32;16.70;;;12.73;;
8480;SDS011;4277;51.354;6.740;2022-11-14T10:23:03;17.30;;;12.20;;
8480;SDS011;4277;51.354;6.740;2022-11-14T10:30:37;14.27;;;10.30;;
8480;SDS011;4277;51.354;6.740;2022-11-14T10:35:41;13.20;;;9.87;;
8480;SDS011;4277;51.354;6.740;2022-11-14T10:38:13;13.57;;;9.33;;
8480;SDS011;4277;51.354;6.740;2022-11-14T10:40:45;11.77;;;8.47;;
8480;SDS011;4277;51.354;6.740;2022-11-14T10:45:40;11.53;;;8.27;;
8480;SDS011;4277;51.354;6.740;2022-11-14T10:48:15;9.97;;;7.83;;
8480;SDS011;4277;51.354;6.740;2022-11-14T10:50:45;10.60;;;7.77;;
8480;SDS011;4277;51.354;6.740;2022-11-14T10:53:19;9.97;;;7.77;;
8480;SDS011;4277;51.354;6.740;2022-11-14T10:55:48;10.53;;;7.57;;
8480;SDS011;4277;51.354;6.740;2022-11-14T10:58:15;9.97;;;7.03;;
8480;SDS011;4277;51.354;6.740;2022-11-14T11:00:41;7.83;;;6.70;;
8480;SDS011;4277;51.354;6.740;2022-11-14T11:03:07;8.33;;;6.67;;
8480;SDS011;4277;51.354;6.740;2022-11-14T11:05:43;7.83;;;6.43;;
8480;SDS011;4277;51.354;6.740;2022-11-14T11:08:09;7.63;;;6.27;;
8480;SDS011;4277;51.354;6.740;2022-11-14T11:10:56;10.80;;;7.10;;
8480;SDS011;4277;51.354;6.740;2022-11-14T11:13:54;10.30;;;6.97;;
8480;SDS011;4277;51.354;6.740;2022-11-14T11:16:22;10.13;;;7.93;;
8480;SDS011;4277;51.354;6.740;2022-11-14T11:18:48;9.93;;;8.00;;
8480;SDS011;4277;51.354;6.740;2022-11-14T11:21:15;10.67;;;7.93;;
8480;SDS011;4277;51.354;6.740;2022-11-14T11:23:49;11.03;;;8.40;;
8480;SDS011;4277;51.354;6.740;2022-11-14T11:26:16;15.13;;;8.70;;
8480;SDS011;4277;51.354;6.740;2022-11-14T11:28:43;12.43;;;8.70;;
8480;SDS011;4277;51.354;6.740;2022-11-14T11:31:25;11.05;;;9.63;;
8480;SDS011;4277;51.354;6.740;2022-11-14T11:33:51;13.17;;;9.43;;
8480;SDS011;4277;51.354;6.740;2022-11-14T11:36:17;11.43;;;8.63;;
8480;SDS011;4277;51.354;6.740;2022-11-14T11:38:44;11.97;;;8.80;;
8480;SDS011;4277;51.354;6.740;2022-11-14T11:46:08;12.33;;;9.57;;
8480;SDS011;4277;51.354;6.740;2022-11-14T11:48:37;11.90;;;9.53;;
8480;SDS011;4277;51.354;6.740;2022-11-14T11:51:03;12.50;;;9.17;;
8480;SDS011;4277;51.354;6.740;2022-11-14T11:53:33;12.90;;;9.27;;
8480;SDS011;4277;51.354;6.740;2022-11-14T11:56:00;12.10;;;9.10;;
8480;SDS011;4277;51.354;6.740;2022-11-14T11:58:31;12.83;;;9.87;;
8480;SDS011;4277;51.354;6.740;2022-11-14T12:00:57;11.20;;;9.13;;
8480;SDS011;4277;51.354;6.740;2022-11-14T12:03:24;12.63;;;9.43;;
8480;SDS011;4277;51.354;6.740;2022-11-14T12:11:13;12.83;;;9.73;;
8480;SDS011;4277;51.354;6.740;2022-11-14T12:27:11;13.00;;;9.90;;
8480;SDS011;4277;51.354;6.740;2022-11-14T12:29:45;12.70;;;10.03;;
8480;SDS011;4277;51.354;6.740;2022-11-14T12:32:14;14.43;;;10.30;;
8480;SDS011;4277;51.354;6.740;2022-11-14T12:34:43;12.23;;;10.00;;
8480;SDS011;4277;51.354;6.740;2022-11-14T12:37:13;13.47;;;10.43;;
8480;SDS011;4277;51.354;6.740;2022-11-14T12:39:40;13.77;;;10.13;;
8480;SDS011;4277;51.354;6.740;2022-11-14T12:42:06;12.97;;;10.20;;
8480;SDS011;4277;51.354;6.740;2022-11-14T12:44:36;12.93;;;10.47;;
8480;SDS011;4277;51.354;6.740;2022-11-14T12:52:01;12.33;;;9.60;;
8480;SDS011;4277;51.354;6.740;2022-11-14T12:55:00;12.93;;;10.20;;
8480;SDS011;4277;51.354;6.740;2022-11-14T12:57:21;11.77;;;9.23;;
8480;SDS011;4277;51.354;6.740;2022-11-14T13:00:09;12.40;;;9.63;;
8480;SDS011;4277;51.354;6.740;2022-11-14T13:02:51;12.33;;;10.07;;
8480;SDS011;4277;51.354;6.740;2022-11-14T13:05:32;13.20;;;10.27;;
8480;SDS011;4277;51.354;6.740;2022-11-14T13:10:37;11.50;;;8.93;;
8480;SDS011;4277;51.354;6.740;2022-11-14T13:15:54;11.90;;;9.63;;
8480;SDS011;4277;51.354;6.740;2022-11-14T13:18:58;12.97;;;9.77;;
8480;SDS011;4277;51.354;6.740;2022-11-14T13:22:16;11.63;;;9.43;;
8480;SDS011;4277;51.354;6.740;2022-11-14T13:27:25;11.33;;;9.07;;
8480;SDS011;4277;51.354;6.740;2022-11-14T13:29:51;13.50;;;9.30;;
8480;SDS011;4277;51.354;6.740;2022-11-14T13:35:03;11.27;;;9.10;;
8480;SDS011;4277;51.354;6.740;2022-11-14T13:50:32;16.00;;;10.60;;
8480;SDS011;4277;51.354;6.740;2022-11-14T13:53:00;14.70;;;11.60;;
8480;SDS011;4277;51.354;6.740;2022-11-14T14:01:00;15.00;;;11.67;;
8480;SDS011;4277;51.354;6.740;2022-11-14T14:03:35;20.30;;;11.13;;
8480;SDS011;4277;51.354;6.740;2022-11-14T14:06:07;17.80;;;12.17;;
8480;SDS011;4277;51.354;6.740;2022-11-14T14:08:52;16.73;;;12.07;;
8480;SDS011;4277;51.354;6.740;2022-11-14T14:16:36;15.43;;;11.77;;
8480;SDS011;4277;51.354;6.740;2022-11-14T14:21:46;16.90;;;11.63;;
8480;SDS011;4277;51.354;6.740;2022-11-14T14:24:20;15.10;;;11.63;;
8480;SDS011;4277;51.354;6.740;2022-11-14T14:29:46;14.27;;;10.63;;
8480;SDS011;4277;51.354;6.740;2022-11-14T14:32:18;13.80;;;10.87;;
8480;SDS011;4277;51.354;6.740;2022-11-14T14:34:44;17.70;;;11.40;;
8480;SDS011;4277;51.354;6.740;2022-11-14T14:37:23;11.33;;;9.70;;
8480;SDS011;4277;51.354;6.740;2022-11-14T14:39:56;13.40;;;10.37;;
8480;SDS011;4277;51.354;6.740;2022-11-14T14:42:23;14.70;;;11.30;;
8480;SDS011;4277;51.354;6.740;2022-11-14T14:44:49;15.23;;;11.43;;
8480;SDS011;4277;51.354;6.740;2022-11-14T14:47:17;15.33;;;11.43;;
8480;SDS011;4277;51.354;6.740;2022-11-14T14:49:43;18.37;;;11.90;;
8480;SDS011;4277;51.354;6.740;2022-11-14T14:55:05;16.53;;;11.97;;
8480;SDS011;4277;51.354;6.740;2022-11-14T14:57:32;15.77;;;11.53;;
8480;SDS011;4277;51.354;6.740;2022-11-14T15:00:06;16.50;;;12.10;;
8480;SDS011;4277;51.354;6.740;2022-11-14T15:02:32;16.57;;;10.97;;
8480;SDS011;4277;51.354;6.740;2022-11-14T15:04:58;18.47;;;11.67;;
8480;SDS011;4277;51.354;6.740;2022-11-14T15:07:25;16.40;;;12.00;;
8480;SDS011;4277;51.354;6.740;2022-11-14T15:09:59;19.40;;;11.90;;
8480;SDS011;4277;51.354;6.740;2022-11-14T15:12:28;25.53;;;11.93;;
8480;SDS011;4277;51.354;6.740;2022-11-14T15:14:54;16.37;;;12.57;;
8480;SDS011;4277;51.354;6.740;2022-11-14T15:17:21;17.50;;;12.83;;
8480;SDS011;4277;51.354;6.740;2022-11-14T15:19:48;16.10;;;12.37;;
8480;SDS011;4277;51.354;6.740;2022-11-14T15:24:42;15.30;;;12.27;;
8480;SDS011;4277;51.354;6.740;2022-11-14T15:27:14;16.13;;;12.50;;
8480;SDS011;4277;51.354;6.740;2022-11-14T15:29:47;15.27;;;12.00;;
8480;SDS011;4277;51.354;6.740;2022-11-14T15:32:16;15.10;;;12.20;;
8480;SDS011;4277;51.354;6.740;2022-11-14T15:35:04;18.80;;;12.43;;
8480;SDS011;4277;51.354;6.740;2022-11-14T15:37:29;17.33;;;12.67;;
8480;SDS011;4277;51.354;6.740;2022-11-14T15:40:07;15.90;;;11.67;;
8480;SDS011;4277;51.354;6.740;2022-11-14T15:42:35;16.50;;;11.67;;
8480;SDS011;4277;51.354;6.740;2022-11-14T15:45:01;15.20;;;11.83;;
8480;SDS011;4277;51.354;6.740;2022-11-14T15:47:44;17.27;;;11.77;;
8480;SDS011;4277;51.354;6.740;2022-11-14T15:52:37;14.37;;;11.80;;
8480;SDS011;4277;51.354;6.740;2022-11-14T15:55:17;18.70;;;12.90;;
8480;SDS011;4277;51.354;6.740;2022-11-14T15:57:43;17.10;;;12.57;;
8480;SDS011;4277;51.354;6.740;2022-11-14T16:00:13;15.83;;;12.47;;
8480;SDS011;4277;51.354;6.740;2022-11-14T16:02:47;17.07;;;12.70;;
8480;SDS011;4277;51.354;6.740;2022-11-14T16:05:14;17.80;;;12.17;;
8480;SDS011;4277;51.354;6.740;2022-11-14T16:07:40;16.63;;;12.63;;
8480;SDS011;4277;51.354;6.740;2022-11-14T16:10:13;16.30;;;11.73;;
8480;SDS011;4277;51.354;6.740;2022-11-14T16:12:40;15.20;;;11.50;;
8480;SDS011;4277;51.354;6.740;2022-11-14T16:15:06;15.47;;;12.10;;
8480;SDS011;4277;51.354;6.740;2022-11-14T16:17:35;14.07;;;11.63;;
8480;SDS011;4277;51.354;6.740;2022-11-14T16:20:05;13.40;;;10.90;;
8480;SDS011;4277;51.354;6.740;2022-11-14T16:22:32;15.00;;;12.00;;
8480;SDS011;4277;51.354;6.740;2022-11-14T16:24:58;14.13;;;11.30;;
8480;SDS011;4277;51.354;6.740;2022-11-14T16:27:24;17.03;;;11.60;;
8480;SDS011;4277;51.354;6.740;2022-11-14T16:29:51;14.03;;;11.23;;
8480;SDS011;4277;51.354;6.740;2022-11-14T16:32:17;16.00;;;12.70;;
8480;SDS011;4277;51.354;6.740;2022-11-14T16:34:43;17.10;;;12.33;;
8480;SDS011;4277;51.354;6.740;2022-11-14T16:37:12;17.73;;;12.43;;
8480;SDS011;4277;51.354;6.740;2022-11-14T16:39:38;15.17;;;11.77;;
8480;SDS011;4277;51.354;6.740;2022-11-14T16:42:04;14.77;;;11.83;;
8480;SDS011;4277;51.354;6.740;2022-11-14T16:44:31;16.27;;;12.53;;
8480;SDS011;4277;51.354;6.740;2022-11-14T16:46:57;15.93;;;11.50;;
8480;SDS011;4277;51.354;6.740;2022-11-14T16:49:23;16.53;;;11.80;;
8480;SDS011;4277;51.354;6.740;2022-11-14T16:51:49;14.90;;;11.63;;
8480;SDS011;4277;51.354;6.740;2022-11-14T16:54:16;14.63;;;11.03;;
8480;SDS011;4277;51.354;6.740;2022-11-14T16:56:42;13.83;;;11.20;;
8480;SDS011;4277;51.354;6.740;2022-11-14T16:59:09;15.70;;;11.17;;